Time,TemperatureF,DewpointF,PressureIn,WindDirection,WindDirectionDegrees,WindSpeedMPH,WindSpeedGustMPH,Humidity,HourlyPrecipIn,Conditions,Clouds,dailyrainin,SoftwareType,DateUTC
2013-02-14 00:00:00,31.9,29.0,29.72,North,5,0.0,0.0,89,0.00,,---,0.00,VWS V14.01,2013-02-14 05:00:00,
2013-02-14 00:01:00,31.9,29.0,29.72,North,5,0.0,0.0,89,0.00,,---,0.00,VWS V14.01,2013-02-14 05:01:00,
2013-02-14 00:05:00,31.9,29.0,29.72,North,5,0.0,0.0,89,0.00,,---,0.00,VWS V14.01,2013-02-14 05:05:00,
2013-02-14 00:10:00,31.9,29.0,29.72,North,5,0.0,0.0,89,0.00,,---,0.00,VWS V14.01,2013-02-14 05:10:00,
2013-02-14 00:15:00,31.9,29.3,29.72,North,5,0.0,0.0,90,0.00,,---,0.00,VWS V14.01,2013-02-14 05:15:00,
2013-02-14 00:21:00,31.9,29.3,29.72,North,5,0.0,0.0,90,0.00,,---,0.00,VWS V14.01,2013-02-14 05:21:00,
2013-02-14 00:26:00,31.9,29.3,29.72,North,5,0.0,0.0,90,0.00,,---,0.00,VWS V14.01,2013-02-14 05:26:00,
2013-02-14 00:31:00,31.8,29.2,29.72,North,5,0.0,0.0,90,0.00,,---,0.00,VWS V14.01,2013-02-14 05:31:00,
2013-02-14 00:36:00,31.8,29.2,29.72,North,5,0.0,0.0,90,0.00,,---,0.00,VWS V14.01,2013-02-14 05:36:00,
2013-02-14 00:41:00,31.8,29.2,29.72,North,5,0.0,0.0,90,0.00,,---,0.00,VWS V14.01,2013-02-14 05:41:00,
2013-02-14 00:46:00,31.8,29.2,29.72,North,5,0.0,0.0,90,0.00,,---,0.00,VWS V14.01,2013-02-14 05:46:00,
2013-02-14 00:51:00,31.8,29.2,29.72,North,5,0.0,0.0,90,0.00,,---,0.00,VWS V14.01,2013-02-14 05:51:00,
2013-02-14 00:56:00,31.8,29.5,29.72,North,5,0.0,0.0,91,0.00,,---,0.00,VWS V14.01,2013-02-14 05:56:00,
2013-02-14 01:02:00,31.8,29.5,29.72,North,5,0.0,0.0,91,0.00,,---,0.00,VWS V14.01,2013-02-14 06:02:00,
2013-02-14 01:08:00,31.8,29.5,29.73,North,5,0.0,0.0,91,0.00,,---,0.00,VWS V14.01,2013-02-14 06:08:00,
2013-02-14 01:13:00,31.8,29.5,29.72,North,5,0.0,0.0,91,0.00,,---,0.00,VWS V14.01,2013-02-14 06:13:00,
2013-02-14 01:19:00,31.8,29.5,29.72,North,5,0.0,0.0,91,0.00,,---,0.00,VWS V14.01,2013-02-14 06:19:00,
2013-02-14 01:24:00,31.6,29.3,29.72,North,5,0.0,0.0,91,0.00,,---,0.00,VWS V14.01,2013-02-14 06:24:00,
2013-02-14 01:29:00,31.6,29.3,29.73,North,5,0.0,0.0,91,0.00,,---,0.00,VWS V14.01,2013-02-14 06:29:00,
2013-02-14 01:35:00,31.6,29.3,29.73,North,5,0.0,0.0,91,0.00,,---,0.00,VWS V14.01,2013-02-14 06:35:00,
2013-02-14 01:41:00,31.6,29.3,29.72,North,5,0.0,0.0,91,0.00,,---,0.00,VWS V14.01,2013-02-14 06:41:00,
2013-02-14 01:42:00,31.6,29.3,29.72,North,5,0.0,0.0,91,0.00,,---,0.00,VWS V14.01,2013-02-14 06:42:00,
2013-02-14 01:48:00,31.5,29.2,29.73,North,5,0.0,0.0,91,0.00,,---,0.00,VWS V14.01,2013-02-14 06:48:00,
2013-02-14 01:53:00,31.5,29.2,29.73,North,5,0.0,0.0,91,0.00,,---,0.00,VWS V14.01,2013-02-14 06:53:00,
2013-02-14 01:59:00,31.5,29.2,29.74,North,5,0.0,0.0,91,0.00,,---,0.00,VWS V14.01,2013-02-14 06:59:00,
2013-02-14 02:05:00,31.5,29.5,29.74,North,5,0.0,0.0,92,0.00,,---,0.00,VWS V14.01,2013-02-14 07:05:00,
2013-02-14 02:10:00,31.3,29.2,29.74,North,5,0.0,0.0,92,0.00,,---,0.00,VWS V14.01,2013-02-14 07:10:00,
2013-02-14 02:15:00,31.3,29.2,29.75,North,5,0.0,0.0,92,0.00,,---,0.00,VWS V14.01,2013-02-14 07:15:00,
2013-02-14 02:21:00,31.3,29.2,29.75,North,5,0.0,0.0,92,0.00,,---,0.00,VWS V14.01,2013-02-14 07:21:00,
2013-02-14 02:27:00,31.3,29.2,29.75,North,5,0.0,0.0,92,0.00,,---,0.00,VWS V14.01,2013-02-14 07:27:00,
2013-02-14 02:32:00,31.3,29.2,29.75,North,5,0.0,0.0,92,0.00,,---,0.00,VWS V14.01,2013-02-14 07:32:00,
2013-02-14 02:38:00,31.2,29.1,29.75,North,5,0.0,0.0,92,0.00,,---,0.00,VWS V14.01,2013-02-14 07:38:00,
2013-02-14 02:43:00,31.2,29.1,29.75,North,5,0.0,0.0,92,0.00,,---,0.00,VWS V14.01,2013-02-14 07:43:00,
2013-02-14 02:48:00,31.0,29.0,29.75,North,5,0.0,0.0,92,0.00,,---,0.00,VWS V14.01,2013-02-14 07:48:00,
2013-02-14 02:54:00,31.0,29.0,29.75,North,360,0.0,0.0,92,0.00,,---,0.00,VWS V14.01,2013-02-14 07:54:00,
2013-02-14 02:59:00,30.9,28.9,29.76,North,360,0.0,0.0,92,0.00,,---,0.00,VWS V14.01,2013-02-14 07:59:00,
2013-02-14 03:04:00,30.7,28.7,29.76,North,360,0.0,0.0,92,0.00,,---,0.00,VWS V14.01,2013-02-14 08:04:00,
2013-02-14 03:09:00,30.7,28.7,29.76,North,360,0.0,0.0,92,0.00,,---,0.00,VWS V14.01,2013-02-14 08:09:00,
2013-02-14 03:14:00,30.6,28.6,29.77,North,360,0.0,0.0,92,0.00,,---,0.00,VWS V14.01,2013-02-14 08:14:00,
2013-02-14 03:19:00,30.6,28.6,29.77,North,360,0.0,0.0,92,0.00,,---,0.00,VWS V14.01,2013-02-14 08:19:00,
2013-02-14 03:24:00,30.4,28.4,29.77,North,360,0.0,0.0,92,0.00,,---,0.00,VWS V14.01,2013-02-14 08:24:00,
2013-02-14 03:30:00,30.4,28.4,29.77,North,360,0.0,0.0,92,0.00,,---,0.00,VWS V14.01,2013-02-14 08:30:00,
2013-02-14 03:36:00,30.4,28.4,29.77,North,360,0.0,0.0,92,0.00,,---,0.00,VWS V14.01,2013-02-14 08:36:00,
2013-02-14 03:41:00,30.4,28.4,29.77,North,360,0.0,0.0,92,0.00,,---,0.00,VWS V14.01,2013-02-14 08:41:00,
2013-02-14 03:47:00,30.3,28.3,29.77,North,360,0.0,0.0,92,0.00,,---,0.00,VWS V14.01,2013-02-14 08:47:00,
2013-02-14 03:52:00,30.3,28.3,29.78,North,360,0.0,0.0,92,0.00,,---,0.00,VWS V14.01,2013-02-14 08:52:00,
2013-02-14 03:57:00,30.3,28.3,29.78,North,360,0.0,0.0,92,0.00,,---,0.00,VWS V14.01,2013-02-14 08:57:00,
2013-02-14 04:03:00,30.3,28.3,29.78,North,360,0.0,0.0,92,0.00,,---,0.00,VWS V14.01,2013-02-14 09:03:00,
2013-02-14 04:08:00,30.3,28.3,29.79,North,360,0.0,0.0,92,0.00,,---,0.00,VWS V14.01,2013-02-14 09:08:00,
2013-02-14 04:13:00,30.3,28.3,29.78,North,360,0.0,0.0,92,0.00,,---,0.00,VWS V14.01,2013-02-14 09:13:00,
2013-02-14 04:19:00,30.3,28.3,29.78,North,360,0.0,0.0,92,0.00,,---,0.00,VWS V14.01,2013-02-14 09:19:00,
2013-02-14 04:24:00,30.3,28.3,29.78,North,360,0.0,0.0,92,0.00,,---,0.00,VWS V14.01,2013-02-14 09:24:00,
2013-02-14 04:29:00,30.1,27.8,29.79,North,360,0.0,0.0,91,0.00,,---,0.00,VWS V14.01,2013-02-14 09:29:00,
2013-02-14 04:34:00,30.0,27.7,29.78,North,360,0.0,0.0,91,0.00,,---,0.00,VWS V14.01,2013-02-14 09:34:00,
2013-02-14 04:39:00,29.8,27.5,29.78,North,360,0.0,0.0,91,0.00,,---,0.00,VWS V14.01,2013-02-14 09:39:00,
2013-02-14 04:44:00,29.7,27.4,29.79,North,360,0.0,0.0,91,0.00,,---,0.00,VWS V14.01,2013-02-14 09:44:00,
2013-02-14 04:49:00,29.5,27.2,29.79,North,360,0.0,0.0,91,0.00,,---,0.00,VWS V14.01,2013-02-14 09:49:00,
2013-02-14 04:54:00,29.4,27.1,29.79,North,360,0.0,0.0,91,0.00,,---,0.00,VWS V14.01,2013-02-14 09:54:00,
2013-02-14 05:00:00,29.3,27.0,29.79,North,360,0.0,0.0,91,0.00,,---,0.00,VWS V14.01,2013-02-14 10:00:00,
2013-02-14 05:05:00,29.3,27.0,29.79,North,360,0.0,0.0,91,0.00,,---,0.00,VWS V14.01,2013-02-14 10:05:00,
2013-02-14 05:10:00,29.1,26.8,29.79,North,360,0.0,0.0,91,0.00,,---,0.00,VWS V14.01,2013-02-14 10:10:00,
2013-02-14 05:15:00,29.0,26.7,29.80,North,360,0.0,0.0,91,0.00,,---,0.00,VWS V14.01,2013-02-14 10:15:00,
2013-02-14 05:21:00,28.8,26.2,29.80,North,360,0.0,0.0,90,0.00,,---,0.00,VWS V14.01,2013-02-14 10:21:00,
2013-02-14 05:26:00,28.7,26.4,29.80,North,360,0.0,0.0,91,0.00,,---,0.00,VWS V14.01,2013-02-14 10:26:00,
2013-02-14 05:31:00,28.5,26.2,29.80,North,360,0.0,0.0,91,0.00,,---,0.00,VWS V14.01,2013-02-14 10:31:00,
2013-02-14 05:37:00,28.5,26.2,29.80,North,360,0.0,0.0,91,0.00,,---,0.00,VWS V14.01,2013-02-14 10:37:00,
2013-02-14 05:43:00,28.5,26.2,29.80,North,360,0.0,0.0,91,0.00,,---,0.00,VWS V14.01,2013-02-14 10:43:00,
2013-02-14 05:48:00,28.4,26.1,29.81,North,360,0.0,0.0,91,0.00,,---,0.00,VWS V14.01,2013-02-14 10:48:00,
2013-02-14 05:53:00,28.2,25.9,29.81,North,360,0.0,0.0,91,0.00,,---,0.00,VWS V14.01,2013-02-14 10:53:00,
2013-02-14 05:58:00,28.1,25.8,29.81,North,360,0.0,0.0,91,0.00,,---,0.00,VWS V14.01,2013-02-14 10:58:00,
2013-02-14 06:03:00,27.9,25.6,29.81,North,360,0.0,0.0,91,0.00,,---,0.00,VWS V14.01,2013-02-14 11:03:00,
2013-02-14 06:08:00,27.8,25.5,29.82,North,360,0.0,0.0,91,0.00,,---,0.00,VWS V14.01,2013-02-14 11:08:00,
2013-02-14 06:13:00,27.5,25.2,29.82,North,360,0.0,0.0,91,0.00,,---,0.00,VWS V14.01,2013-02-14 11:13:00,
2013-02-14 06:18:00,27.3,24.8,29.82,North,360,0.0,0.0,90,0.00,,---,0.00,VWS V14.01,2013-02-14 11:18:00,
2013-02-14 06:23:00,27.0,24.5,29.83,North,360,0.0,0.0,90,0.00,,---,0.00,VWS V14.01,2013-02-14 11:23:00,
2013-02-14 06:28:00,26.9,24.4,29.83,North,360,0.0,0.0,90,0.00,,---,0.00,VWS V14.01,2013-02-14 11:28:00,
2013-02-14 06:34:00,26.7,24.2,29.83,North,360,0.0,0.0,90,0.00,,---,0.00,VWS V14.01,2013-02-14 11:34:00,
2013-02-14 06:39:00,26.7,24.4,29.83,North,360,0.0,0.0,91,0.00,,---,0.00,VWS V14.01,2013-02-14 11:39:00,
2013-02-14 06:44:00,26.9,24.6,29.83,North,360,0.0,0.0,91,0.00,,---,0.00,VWS V14.01,2013-02-14 11:44:00,
2013-02-14 06:49:00,26.9,24.6,29.84,North,360,0.0,0.0,91,0.00,,---,0.00,VWS V14.01,2013-02-14 11:49:00,
2013-02-14 06:54:00,26.9,24.6,29.84,North,360,0.0,0.0,91,0.00,,---,0.00,VWS V14.01,2013-02-14 11:54:00,
2013-02-14 06:59:00,26.9,24.6,29.84,North,360,0.0,0.0,91,0.00,,---,0.00,VWS V14.01,2013-02-14 11:59:00,
2013-02-14 07:04:00,26.9,24.6,29.85,North,360,0.0,0.0,91,0.00,,---,0.00,VWS V14.01,2013-02-14 12:04:00,
2013-02-14 07:09:00,26.9,24.6,29.85,North,360,0.0,0.0,91,0.00,,---,0.00,VWS V14.01,2013-02-14 12:09:00,
2013-02-14 07:14:00,27.0,24.7,29.86,North,360,0.0,0.0,91,0.00,,---,0.00,VWS V14.01,2013-02-14 12:14:00,
2013-02-14 07:19:00,26.9,24.6,29.86,North,360,0.0,0.0,91,0.00,,---,0.00,VWS V14.01,2013-02-14 12:19:00,
2013-02-14 07:24:00,26.9,24.6,29.86,North,360,0.0,0.0,91,0.00,,---,0.00,VWS V14.01,2013-02-14 12:24:00,
2013-02-14 07:29:00,26.9,24.6,29.86,North,360,0.0,0.0,91,0.00,,---,0.00,VWS V14.01,2013-02-14 12:29:00,
2013-02-14 07:35:00,26.9,24.6,29.87,North,360,0.0,0.0,91,0.00,,---,0.00,VWS V14.01,2013-02-14 12:35:00,
2013-02-14 07:40:00,26.7,24.4,29.88,North,360,0.0,0.0,91,0.00,,---,0.00,VWS V14.01,2013-02-14 12:40:00,
2013-02-14 07:45:00,26.7,24.2,29.88,North,360,0.0,0.0,90,0.00,,---,0.00,VWS V14.01,2013-02-14 12:45:00,
2013-02-14 07:50:00,26.7,24.2,29.88,North,360,0.0,0.0,90,0.00,,---,0.00,VWS V14.01,2013-02-14 12:50:00,
2013-02-14 07:55:00,26.9,24.6,29.89,North,360,0.0,0.0,91,0.00,,---,0.00,VWS V14.01,2013-02-14 12:55:00,
2013-02-14 08:00:00,27.0,24.5,29.90,North,360,0.0,0.0,90,0.00,,---,0.00,VWS V14.01,2013-02-14 13:00:00,
2013-02-14 08:06:00,27.2,24.7,29.90,North,360,0.0,0.0,90,0.00,,---,0.00,VWS V14.01,2013-02-14 13:06:00,
2013-02-14 08:12:00,27.3,24.8,29.90,North,360,0.0,0.0,90,0.00,,---,0.00,VWS V14.01,2013-02-14 13:12:00,
2013-02-14 08:17:00,27.3,24.8,29.90,North,360,0.0,0.0,90,0.00,,---,0.00,VWS V14.01,2013-02-14 13:17:00,
2013-02-14 08:22:00,27.5,24.7,29.90,North,360,0.0,0.0,89,0.00,,---,0.00,VWS V14.01,2013-02-14 13:22:00,
2013-02-14 08:27:00,27.6,24.8,29.91,North,360,0.0,0.0,89,0.00,,---,0.00,VWS V14.01,2013-02-14 13:27:00,
2013-02-14 08:32:00,27.8,25.0,29.91,North,360,0.0,0.0,89,0.00,,---,0.00,VWS V14.01,2013-02-14 13:32:00,
2013-02-14 08:37:00,28.1,25.0,29.91,NNW,348,0.0,0.0,88,0.00,,---,0.00,VWS V14.01,2013-02-14 13:37:00,
2013-02-14 08:42:00,28.2,24.6,29.91,NNW,348,0.0,0.0,86,0.00,,---,0.00,VWS V14.01,2013-02-14 13:42:00,
2013-02-14 08:47:00,28.5,24.6,29.91,NNW,344,0.0,0.0,85,0.00,,---,0.00,VWS V14.01,2013-02-14 13:47:00,
2013-02-14 08:52:00,28.7,24.5,29.91,NW,325,0.0,2.0,84,0.00,,---,0.00,VWS V14.01,2013-02-14 13:52:00,
2013-02-14 08:57:00,29.0,24.5,29.91,NW,317,0.0,3.0,83,0.00,,---,0.00,VWS V14.01,2013-02-14 13:57:00,
2013-02-14 09:02:00,29.3,24.8,29.92,NW,317,0.0,0.0,83,0.00,,---,0.00,VWS V14.01,2013-02-14 14:02:00,
2013-02-14 09:07:00,29.5,24.7,29.92,North,355,0.0,0.0,82,0.00,,---,0.00,VWS V14.01,2013-02-14 14:07:00,
2013-02-14 09:12:00,29.8,25.0,29.92,North,355,0.0,0.0,82,0.00,,---,0.00,VWS V14.01,2013-02-14 14:12:00,
2013-02-14 09:18:00,30.3,25.5,29.93,North,355,0.0,0.0,82,0.00,,---,0.00,VWS V14.01,2013-02-14 14:18:00,
2013-02-14 09:23:00,30.6,25.5,29.92,NNW,329,1.0,2.0,81,0.00,,---,0.00,VWS V14.01,2013-02-14 14:23:00,
2013-02-14 09:28:00,30.7,25.3,29.93,NNW,329,0.0,0.0,80,0.00,,---,0.00,VWS V14.01,2013-02-14 14:28:00,
2013-02-14 09:33:00,31.0,25.3,29.93,WNW,300,0.0,2.0,79,0.00,,---,0.00,VWS V14.01,2013-02-14 14:33:00,
2013-02-14 09:38:00,31.3,25.2,29.93,NW,319,0.0,0.0,78,0.00,,---,0.00,VWS V14.01,2013-02-14 14:38:00,
2013-02-14 09:44:00,31.6,24.9,29.93,NW,313,0.0,0.0,76,0.00,,---,0.00,VWS V14.01,2013-02-14 14:44:00,
2013-02-14 09:50:00,31.9,24.9,29.93,NW,319,0.0,0.0,75,0.00,,---,0.00,VWS V14.01,2013-02-14 14:50:00,
2013-02-14 09:55:00,32.4,26.0,29.93,NW,319,0.0,0.0,77,0.00,,---,0.00,VWS V14.01,2013-02-14 14:55:00,
2013-02-14 10:00:00,32.7,25.3,29.93,NW,319,1.0,1.0,74,0.00,,---,0.00,VWS V14.01,2013-02-14 15:00:00,
2013-02-14 10:05:00,32.8,25.1,29.93,WNW,292,2.0,2.0,73,0.00,,---,0.00,VWS V14.01,2013-02-14 15:05:00,
2013-02-14 10:10:00,33.1,25.1,29.93,NW,325,0.0,3.0,72,0.00,,---,0.00,VWS V14.01,2013-02-14 15:10:00,
2013-02-14 10:15:00,33.4,24.3,29.93,West,274,2.0,2.0,69,0.00,,---,0.00,VWS V14.01,2013-02-14 15:15:00,
2013-02-14 10:20:00,33.5,24.1,29.94,WSW,252,3.0,6.0,68,0.00,,---,0.00,VWS V14.01,2013-02-14 15:20:00,
2013-02-14 10:25:00,33.8,24.4,29.94,NW,310,2.0,2.0,68,0.00,,---,0.00,VWS V14.01,2013-02-14 15:25:00,
2013-02-14 10:30:00,34.0,24.2,29.94,NNW,327,1.0,4.0,67,0.00,,---,0.00,VWS V14.01,2013-02-14 15:30:00,
2013-02-14 10:35:00,34.3,24.1,29.94,ENE,64,0.0,0.0,66,0.00,,---,0.00,VWS V14.01,2013-02-14 15:35:00,
2013-02-14 10:41:00,34.7,23.4,29.94,NW,310,4.0,4.0,63,0.00,,---,0.00,VWS V14.01,2013-02-14 15:41:00,
2013-02-14 10:47:00,35.0,24.1,29.94,NW,315,2.0,3.0,64,0.00,,---,0.00,VWS V14.01,2013-02-14 15:47:00,
2013-02-14 10:52:00,35.3,22.8,29.94,West,271,2.0,4.0,60,0.00,,---,0.00,VWS V14.01,2013-02-14 15:52:00,
2013-02-14 10:57:00,35.6,23.1,29.94,NW,304,1.0,4.0,60,0.00,,---,0.00,VWS V14.01,2013-02-14 15:57:00,
2013-02-14 11:02:00,35.9,24.5,29.94,WNW,296,1.0,3.0,63,0.00,,---,0.00,VWS V14.01,2013-02-14 16:02:00,
2013-02-14 11:08:00,36.2,22.9,29.94,WSW,250,1.0,4.0,58,0.00,,---,0.00,VWS V14.01,2013-02-14 16:08:00,
2013-02-14 11:14:00,36.6,23.6,29.94,NW,315,2.0,4.0,59,0.00,,---,0.00,VWS V14.01,2013-02-14 16:14:00,
2013-02-14 11:19:00,36.9,24.3,29.94,NW,326,3.0,4.0,60,0.00,,---,0.00,VWS V14.01,2013-02-14 16:19:00,
2013-02-14 11:24:00,37.3,24.7,29.94,NNW,337,0.0,1.0,60,0.00,,---,0.00,VWS V14.01,2013-02-14 16:24:00,
2013-02-14 11:29:00,37.6,23.8,29.94,WSW,252,0.0,0.0,57,0.01,,---,0.01,VWS V14.01,2013-02-14 16:29:00,
2013-02-14 11:34:00,37.9,24.5,29.94,SW,225,3.0,4.0,58,0.01,,---,0.01,VWS V14.01,2013-02-14 16:34:00,
2013-02-14 11:39:00,38.0,23.7,29.94,West,269,0.0,2.0,56,0.02,,---,0.02,VWS V14.01,2013-02-14 16:39:00,
2013-02-14 11:44:00,38.2,23.5,29.93,WSW,238,4.0,6.0,55,0.03,,---,0.03,VWS V14.01,2013-02-14 16:44:00,
2013-02-14 11:49:00,38.6,24.3,29.94,NW,304,0.0,3.0,56,0.04,,---,0.04,VWS V14.01,2013-02-14 16:49:00,
2013-02-14 11:55:00,38.9,23.2,29.94,West,259,0.0,2.0,53,0.04,,---,0.04,VWS V14.01,2013-02-14 16:55:00,
2013-02-14 12:00:00,39.2,23.1,29.94,WSW,238,0.0,0.0,52,0.04,,---,0.04,VWS V14.01,2013-02-14 17:00:00,
2013-02-14 12:05:00,39.3,23.6,29.93,WSW,240,0.0,3.0,53,0.05,,---,0.05,VWS V14.01,2013-02-14 17:05:00,
2013-02-14 12:10:00,39.8,24.1,29.93,WSW,241,0.0,1.0,53,0.05,,---,0.05,VWS V14.01,2013-02-14 17:10:00,
2013-02-14 12:15:00,39.9,23.3,29.93,WSW,240,1.0,4.0,51,0.05,,---,0.05,VWS V14.01,2013-02-14 17:15:00,
2013-02-14 12:20:00,39.8,22.7,29.93,SSW,192,2.0,2.0,50,0.05,,---,0.05,VWS V14.01,2013-02-14 17:20:00,
2013-02-14 12:26:00,39.6,21.5,29.93,SW,227,3.0,4.0,48,0.05,,---,0.05,VWS V14.01,2013-02-14 17:26:00,
2013-02-14 12:31:00,39.6,23.4,29.93,SW,233,4.0,5.0,52,0.04,,---,0.05,VWS V14.01,2013-02-14 17:31:00,
2013-02-14 12:36:00,39.9,23.7,29.93,West,259,0.0,1.0,52,0.03,,---,0.05,VWS V14.01,2013-02-14 17:36:00,
2013-02-14 12:42:00,40.1,22.5,29.93,SW,231,1.0,2.0,49,0.02,,---,0.05,VWS V14.01,2013-02-14 17:42:00,
2013-02-14 12:47:00,40.1,23.4,29.93,North,355,0.0,0.0,51,0.02,,---,0.05,VWS V14.01,2013-02-14 17:47:00,
2013-02-14 12:52:00,40.3,21.7,29.93,WSW,254,0.0,0.0,47,0.01,,---,0.05,VWS V14.01,2013-02-14 17:52:00,
2013-02-14 12:58:00,41.2,24.0,29.92,NW,323,1.0,1.0,50,0.01,,---,0.05,VWS V14.01,2013-02-14 17:58:00,
2013-02-14 13:03:00,41.6,23.4,29.92,NW,319,1.0,1.0,48,0.01,,---,0.05,VWS V14.01,2013-02-14 18:03:00,
2013-02-14 13:08:00,41.3,22.1,29.92,SW,224,0.0,5.0,46,0.00,,---,0.05,VWS V14.01,2013-02-14 18:08:00,
2013-02-14 13:14:00,41.1,22.4,29.92,West,278,0.0,0.0,47,0.00,,---,0.05,VWS V14.01,2013-02-14 18:14:00,
2013-02-14 13:20:00,41.1,22.4,29.92,SSE,167,3.0,4.0,47,0.00,,---,0.05,VWS V14.01,2013-02-14 18:20:00,
2013-02-14 13:25:00,40.8,21.6,29.92,WSW,257,0.0,0.0,46,0.00,,---,0.05,VWS V14.01,2013-02-14 18:25:00,
2013-02-14 13:30:00,40.6,21.5,29.92,WSW,257,0.0,1.0,46,0.00,,---,0.05,VWS V14.01,2013-02-14 18:30:00,
2013-02-14 13:35:00,40.8,22.1,29.93,West,272,2.0,3.0,47,0.00,,---,0.05,VWS V14.01,2013-02-14 18:35:00,
2013-02-14 13:40:00,41.1,22.4,29.92,North,5,1.0,3.0,47,0.00,,---,0.05,VWS V14.01,2013-02-14 18:40:00,
2013-02-14 13:45:00,41.3,21.0,29.92,SW,220,0.0,2.0,44,0.00,,---,0.05,VWS V14.01,2013-02-14 18:45:00,
2013-02-14 13:50:00,41.3,21.0,29.92,SW,225,3.0,5.0,44,0.00,,---,0.05,VWS V14.01,2013-02-14 18:50:00,
2013-02-14 13:55:00,40.9,20.1,29.92,SW,222,0.0,3.0,43,0.00,,---,0.05,VWS V14.01,2013-02-14 18:55:00,
2013-02-14 14:00:00,41.2,21.0,29.93,SW,222,1.0,1.0,44,0.00,,---,0.05,VWS V14.01,2013-02-14 19:00:00,
2013-02-14 14:05:00,41.9,21.0,29.93,WNW,287,0.0,1.0,43,0.00,,---,0.05,VWS V14.01,2013-02-14 19:05:00,
2013-02-14 14:10:00,42.3,21.4,29.93,WSW,256,2.0,2.0,43,0.00,,---,0.05,VWS V14.01,2013-02-14 19:10:00,
2013-02-14 14:15:00,41.8,20.4,29.93,SW,231,0.0,2.0,42,0.00,,---,0.05,VWS V14.01,2013-02-14 19:15:00,
2013-02-14 14:21:00,42.1,21.2,29.93,SSW,202,3.0,4.0,43,0.00,,---,0.05,VWS V14.01,2013-02-14 19:21:00,
2013-02-14 14:26:00,42.2,21.3,29.93,SSW,202,0.0,1.0,43,0.00,,---,0.05,VWS V14.01,2013-02-14 19:26:00,
2013-02-14 14:31:00,42.6,21.7,29.93,NNW,327,0.0,1.0,43,0.00,,---,0.05,VWS V14.01,2013-02-14 19:31:00,
2013-02-14 14:36:00,43.1,22.1,29.92,NNW,327,0.0,0.0,43,0.00,,---,0.05,VWS V14.01,2013-02-14 19:36:00,
2013-02-14 14:41:00,43.6,21.5,29.92,South,181,1.0,4.0,41,0.00,,---,0.05,VWS V14.01,2013-02-14 19:41:00,
2013-02-14 14:46:00,43.5,21.4,29.93,WSW,252,2.0,4.0,41,0.00,,---,0.05,VWS V14.01,2013-02-14 19:46:00,
2013-02-14 14:51:00,42.9,20.8,29.93,SW,219,0.0,1.0,41,0.00,,---,0.05,VWS V14.01,2013-02-14 19:51:00,
2013-02-14 14:56:00,42.6,20.6,29.94,SW,230,0.0,4.0,41,0.00,,---,0.05,VWS V14.01,2013-02-14 19:56:00,
2013-02-14 15:01:00,42.8,20.8,29.94,West,270,1.0,1.0,41,0.00,,---,0.05,VWS V14.01,2013-02-14 20:01:00,
2013-02-14 15:06:00,42.6,21.7,29.94,SSW,192,0.0,3.0,43,0.00,,---,0.05,VWS V14.01,2013-02-14 20:06:00,
2013-02-14 15:11:00,42.9,21.4,29.94,WNW,283,0.0,3.0,42,0.00,,---,0.05,VWS V14.01,2013-02-14 20:11:00,
2013-02-14 15:16:00,43.3,21.2,29.94,SSW,207,0.0,3.0,41,0.00,,---,0.05,VWS V14.01,2013-02-14 20:16:00,
2013-02-14 15:22:00,43.5,20.8,29.94,SW,216,0.0,4.0,40,0.00,,---,0.05,VWS V14.01,2013-02-14 20:22:00,
2013-02-14 15:27:00,43.2,21.1,29.94,WSW,240,0.0,2.0,41,0.00,,---,0.05,VWS V14.01,2013-02-14 20:27:00,
2013-02-14 15:32:00,43.2,21.1,29.94,NNW,346,0.0,1.0,41,0.00,,---,0.05,VWS V14.01,2013-02-14 20:32:00,
2013-02-14 15:37:00,43.6,22.6,29.94,WNW,300,1.0,2.0,43,0.00,,---,0.05,VWS V14.01,2013-02-14 20:37:00,
2013-02-14 15:42:00,44.1,21.3,29.94,SW,217,3.0,3.0,40,0.00,,---,0.05,VWS V14.01,2013-02-14 20:42:00,
2013-02-14 15:47:00,43.6,21.5,29.94,WSW,241,3.0,3.0,41,0.00,,---,0.05,VWS V14.01,2013-02-14 20:47:00,
2013-02-14 15:52:00,43.3,21.2,29.95,SW,226,1.0,4.0,41,0.00,,---,0.05,VWS V14.01,2013-02-14 20:52:00,
2013-02-14 15:57:00,42.8,20.8,29.95,WSW,244,0.0,2.0,41,0.00,,---,0.05,VWS V14.01,2013-02-14 20:57:00,
2013-02-14 16:02:00,42.8,21.3,29.94,NW,320,1.0,2.0,42,0.00,,---,0.05,VWS V14.01,2013-02-14 21:02:00,
2013-02-14 16:07:00,43.2,21.1,29.94,NW,320,1.0,1.0,41,0.00,,---,0.05,VWS V14.01,2013-02-14 21:07:00,
2013-02-14 16:12:00,43.9,21.7,29.94,NW,315,1.0,1.0,41,0.00,,---,0.05,VWS V14.01,2013-02-14 21:12:00,
2013-02-14 16:17:00,44.1,21.9,29.95,SSW,207,0.0,3.0,41,0.00,,---,0.05,VWS V14.01,2013-02-14 21:17:00,
2013-02-14 16:22:00,44.2,21.4,29.94,SW,218,1.0,1.0,40,0.00,,---,0.05,VWS V14.01,2013-02-14 21:22:00,
2013-02-14 16:27:00,44.2,22.0,29.94,South,186,1.0,2.0,41,0.00,,---,0.05,VWS V14.01,2013-02-14 21:27:00,
2013-02-14 16:32:00,43.9,22.9,29.94,WSW,253,2.0,2.0,43,0.00,,---,0.05,VWS V14.01,2013-02-14 21:32:00,
2013-02-14 16:37:00,43.6,22.6,29.94,WSW,253,0.0,0.0,43,0.00,,---,0.05,VWS V14.01,2013-02-14 21:37:00,
2013-02-14 16:42:00,43.5,22.5,29.95,WSW,252,0.0,0.0,43,0.00,,---,0.05,VWS V14.01,2013-02-14 21:42:00,
2013-02-14 16:48:00,43.3,22.9,29.95,SW,224,0.0,3.0,44,0.00,,---,0.05,VWS V14.01,2013-02-14 21:48:00,
2013-02-14 16:53:00,42.9,23.6,29.95,WSW,252,0.0,0.0,46,0.00,,---,0.05,VWS V14.01,2013-02-14 21:53:00,
2013-02-14 16:58:00,42.3,23.0,29.95,WSW,252,0.0,3.0,46,0.00,,---,0.05,VWS V14.01,2013-02-14 21:58:00,
2013-02-14 17:04:00,41.6,23.4,29.95,WSW,252,0.0,0.0,48,0.00,,---,0.05,VWS V14.01,2013-02-14 22:04:00,
2013-02-14 17:09:00,41.2,23.0,29.96,WSW,252,0.0,0.0,48,0.00,,---,0.05,VWS V14.01,2013-02-14 22:09:00,
2013-02-14 17:14:00,40.9,23.2,29.96,WSW,252,2.0,2.0,49,0.00,,---,0.05,VWS V14.01,2013-02-14 22:14:00,
2013-02-14 17:19:00,40.6,23.4,29.96,SW,220,0.0,0.0,50,0.00,,---,0.05,VWS V14.01,2013-02-14 22:19:00,
2013-02-14 17:24:00,40.3,23.6,29.96,SW,220,0.0,2.0,51,0.00,,---,0.05,VWS V14.01,2013-02-14 22:24:00,
2013-02-14 17:30:00,40.2,24.0,29.97,SW,220,0.0,0.0,52,0.00,,---,0.05,VWS V14.01,2013-02-14 22:30:00,
2013-02-14 17:35:00,39.9,23.7,29.97,SW,220,0.0,0.0,52,0.00,,---,0.05,VWS V14.01,2013-02-14 22:35:00,
2013-02-14 17:40:00,39.8,24.1,29.97,SW,220,0.0,0.0,53,0.00,,---,0.05,VWS V14.01,2013-02-14 22:40:00,
2013-02-14 17:45:00,39.5,23.8,29.97,SW,220,0.0,0.0,53,0.00,,---,0.05,VWS V14.01,2013-02-14 22:45:00,
2013-02-14 17:50:00,39.2,24.0,29.97,SW,220,0.0,0.0,54,0.00,,---,0.05,VWS V14.01,2013-02-14 22:50:00,
2013-02-14 17:55:00,38.9,23.7,29.97,SW,220,0.0,0.0,54,0.00,,---,0.05,VWS V14.01,2013-02-14 22:55:00,
2013-02-14 18:01:00,38.5,23.8,29.97,SW,220,0.0,0.0,55,0.00,,---,0.05,VWS V14.01,2013-02-14 23:01:00,
2013-02-14 18:06:00,38.2,23.5,29.97,SSW,203,0.0,0.0,55,0.00,,---,0.05,VWS V14.01,2013-02-14 23:06:00,
2013-02-14 18:11:00,37.9,23.6,29.97,ESE,112,0.0,0.0,56,0.00,,---,0.05,VWS V14.01,2013-02-14 23:11:00,
2013-02-14 18:16:00,37.6,23.3,29.97,ESE,112,0.0,0.0,56,0.00,,---,0.05,VWS V14.01,2013-02-14 23:16:00,
2013-02-14 18:21:00,37.3,23.5,29.97,ESE,112,0.0,0.0,57,0.00,,---,0.05,VWS V14.01,2013-02-14 23:21:00,
2013-02-14 18:27:00,37.0,23.2,29.97,ESE,112,0.0,0.0,57,0.00,,---,0.05,VWS V14.01,2013-02-14 23:27:00,
2013-02-14 18:33:00,36.8,23.0,29.97,ESE,112,0.0,0.0,57,0.00,,---,0.05,VWS V14.01,2013-02-14 23:33:00,
2013-02-14 18:38:00,36.6,23.2,29.97,ESE,112,0.0,0.0,58,0.00,,---,0.05,VWS V14.01,2013-02-14 23:38:00,
2013-02-14 18:44:00,36.3,23.0,29.97,ESE,112,0.0,0.0,58,0.00,,---,0.05,VWS V14.01,2013-02-14 23:44:00,
2013-02-14 18:50:00,36.0,23.1,29.98,ESE,112,0.0,0.0,59,0.00,,---,0.05,VWS V14.01,2013-02-14 23:50:00,
2013-02-14 18:56:00,35.9,23.0,29.98,ESE,112,0.0,0.0,59,0.00,,---,0.05,VWS V14.01,2013-02-14 23:56:00,
2013-02-14 19:01:00,35.8,22.9,29.98,ESE,112,0.0,0.0,59,0.00,,---,0.05,VWS V14.01,2013-02-15 00:01:00,
2013-02-14 19:06:00,35.8,23.3,29.98,ESE,112,0.0,0.0,60,0.00,,---,0.05,VWS V14.01,2013-02-15 00:06:00,
2013-02-14 19:11:00,35.8,23.3,29.98,ESE,112,0.0,0.0,60,0.00,,---,0.05,VWS V14.01,2013-02-15 00:11:00,
2013-02-14 19:16:00,35.6,23.9,29.99,ESE,112,0.0,0.0,62,0.00,,---,0.05,VWS V14.01,2013-02-15 00:16:00,
2013-02-14 19:22:00,35.3,23.2,29.99,ESE,112,0.0,0.0,61,0.00,,---,0.05,VWS V14.01,2013-02-15 00:22:00,
2013-02-14 19:27:00,35.2,23.1,29.99,ESE,112,0.0,0.0,61,0.00,,---,0.05,VWS V14.01,2013-02-15 00:27:00,
2013-02-14 19:33:00,35.0,23.3,29.99,ESE,112,0.0,0.0,62,0.00,,---,0.05,VWS V14.01,2013-02-15 00:33:00,
2013-02-14 19:39:00,34.7,23.0,29.98,ESE,112,0.0,0.0,62,0.00,,---,0.05,VWS V14.01,2013-02-15 00:39:00,
2013-02-14 19:44:00,34.6,22.9,29.98,ESE,112,0.0,0.0,62,0.00,,---,0.05,VWS V14.01,2013-02-15 00:44:00,
2013-02-14 19:49:00,34.4,22.7,29.98,ESE,112,0.0,0.0,62,0.00,,---,0.05,VWS V14.01,2013-02-15 00:49:00,
2013-02-14 19:54:00,34.3,22.6,29.98,ESE,112,0.0,0.0,62,0.00,,---,0.05,VWS V14.01,2013-02-15 00:54:00,
2013-02-14 20:00:00,34.1,22.8,29.98,ESE,112,0.0,0.0,63,0.00,,---,0.05,VWS V14.01,2013-02-15 01:00:00,
2013-02-14 20:06:00,34.0,22.7,29.98,ESE,112,0.0,0.0,63,0.00,,---,0.05,VWS V14.01,2013-02-15 01:06:00,
2013-02-14 20:11:00,33.8,22.9,29.99,ESE,112,0.0,0.0,64,0.00,,---,0.05,VWS V14.01,2013-02-15 01:11:00,
2013-02-14 20:16:00,33.7,23.2,29.99,ESE,112,0.0,0.0,65,0.00,,---,0.05,VWS V14.01,2013-02-15 01:16:00,
2013-02-14 20:21:00,33.7,23.2,29.99,ESE,112,0.0,0.0,65,0.00,,---,0.05,VWS V14.01,2013-02-15 01:21:00,
2013-02-14 20:26:00,33.5,23.7,29.99,SE,134,0.0,0.0,67,0.00,,---,0.05,VWS V14.01,2013-02-15 01:26:00,
2013-02-14 20:31:00,33.5,23.7,29.99,SE,133,0.0,0.0,67,0.00,,---,0.05,VWS V14.01,2013-02-15 01:31:00,
2013-02-14 20:37:00,33.5,24.1,29.99,SE,133,0.0,1.0,68,0.00,,---,0.05,VWS V14.01,2013-02-15 01:37:00,
2013-02-14 20:42:00,33.4,24.3,29.99,SE,133,0.0,0.0,69,0.00,,---,0.05,VWS V14.01,2013-02-15 01:42:00,
2013-02-14 20:47:00,33.2,24.5,29.99,SE,133,0.0,0.0,70,0.00,,---,0.05,VWS V14.01,2013-02-15 01:47:00,
2013-02-14 20:52:00,33.2,24.8,29.99,SE,136,0.0,0.0,71,0.00,,---,0.05,VWS V14.01,2013-02-15 01:52:00,
2013-02-14 20:57:00,33.4,25.4,29.99,SE,136,0.0,0.0,72,0.00,,---,0.05,VWS V14.01,2013-02-15 01:57:00,
2013-02-14 21:02:00,33.5,25.5,29.99,SE,136,0.0,1.0,72,0.00,,---,0.05,VWS V14.01,2013-02-15 02:02:00,
2013-02-14 21:07:00,33.5,25.8,29.99,SE,136,0.0,0.0,73,0.00,,---,0.05,VWS V14.01,2013-02-15 02:07:00,
2013-02-14 21:12:00,33.5,25.8,30.00,SE,136,0.0,0.0,73,0.00,,---,0.05,VWS V14.01,2013-02-15 02:12:00,
2013-02-14 21:17:00,33.7,26.0,30.00,SE,136,0.0,2.0,73,0.00,,---,0.05,VWS V14.01,2013-02-15 02:17:00,
2013-02-14 21:22:00,33.7,26.0,30.00,SE,136,0.0,0.0,73,0.00,,---,0.05,VWS V14.01,2013-02-15 02:22:00,
2013-02-14 21:27:00,33.7,26.3,29.99,SE,136,0.0,2.0,74,0.00,,---,0.05,VWS V14.01,2013-02-15 02:27:00,
2013-02-14 21:32:00,33.7,26.3,29.99,SSE,155,1.0,1.0,74,0.00,,---,0.05,VWS V14.01,2013-02-15 02:32:00,
2013-02-14 21:37:00,33.7,26.3,29.99,SSE,158,0.0,3.0,74,0.00,,---,0.05,VWS V14.01,2013-02-15 02:37:00,
2013-02-14 21:43:00,33.7,26.6,29.99,SSE,158,0.0,1.0,75,0.00,,---,0.05,VWS V14.01,2013-02-15 02:43:00,
2013-02-14 21:48:00,33.5,26.4,29.99,SSE,158,0.0,1.0,75,0.00,,---,0.05,VWS V14.01,2013-02-15 02:48:00,
2013-02-14 21:54:00,33.5,26.4,29.99,SSE,158,0.0,0.0,75,0.00,,---,0.05,VWS V14.01,2013-02-15 02:54:00,
2013-02-14 21:59:00,33.5,26.8,29.99,SSE,158,2.0,2.0,76,0.00,,---,0.05,VWS V14.01,2013-02-15 02:59:00,
2013-02-14 22:05:00,33.7,27.3,29.99,SSE,151,2.0,3.0,77,0.00,,---,0.05,VWS V14.01,2013-02-15 03:05:00,
2013-02-14 22:10:00,33.8,27.4,29.99,SSE,153,0.0,1.0,77,0.00,,---,0.05,VWS V14.01,2013-02-15 03:10:00,
2013-02-14 22:15:00,33.8,27.4,29.99,SSE,153,0.0,1.0,77,0.00,,---,0.05,VWS V14.01,2013-02-15 03:15:00,
2013-02-14 22:20:00,34.0,27.9,29.99,SSE,147,0.0,2.0,78,0.00,,---,0.05,VWS V14.01,2013-02-15 03:20:00,
2013-02-14 22:25:00,34.0,27.9,29.99,SE,144,0.0,1.0,78,0.00,,---,0.05,VWS V14.01,2013-02-15 03:25:00,
2013-02-14 22:30:00,34.0,27.9,29.99,SSE,153,0.0,0.0,78,0.00,,---,0.05,VWS V14.01,2013-02-15 03:30:00,
2013-02-14 22:35:00,34.0,28.2,29.99,SSE,153,0.0,0.0,79,0.00,,---,0.05,VWS V14.01,2013-02-15 03:35:00,
2013-02-14 22:40:00,34.0,28.2,30.00,SSE,153,0.0,1.0,79,0.00,,---,0.05,VWS V14.01,2013-02-15 03:40:00,
2013-02-14 22:45:00,34.0,28.5,30.00,SE,139,0.0,0.0,80,0.00,,---,0.05,VWS V14.01,2013-02-15 03:45:00,
2013-02-14 22:50:00,33.8,28.3,30.00,SE,139,0.0,1.0,80,0.00,,---,0.05,VWS V14.01,2013-02-15 03:50:00,
2013-02-14 22:55:00,33.8,28.3,29.99,South,169,0.0,0.0,80,0.00,,---,0.05,VWS V14.01,2013-02-15 03:55:00,
2013-02-14 23:00:00,33.8,28.6,29.99,SSE,161,0.0,1.0,81,0.00,,---,0.05,VWS V14.01,2013-02-15 04:00:00,
2013-02-14 23:05:00,33.7,28.5,29.99,SSE,161,0.0,0.0,81,0.00,,---,0.05,VWS V14.01,2013-02-15 04:05:00,
2013-02-14 23:10:00,33.5,28.6,29.99,SSE,161,0.0,0.0,82,0.00,,---,0.05,VWS V14.01,2013-02-15 04:10:00,
2013-02-14 23:15:00,33.4,28.5,29.99,SSE,158,0.0,0.0,82,0.00,,---,0.05,VWS V14.01,2013-02-15 04:15:00,
2013-02-14 23:20:00,33.2,28.6,29.99,SSE,158,0.0,0.0,83,0.00,,---,0.05,VWS V14.01,2013-02-15 04:20:00,
2013-02-14 23:25:00,33.1,28.5,29.99,SSE,158,0.0,0.0,83,0.00,,---,0.05,VWS V14.01,2013-02-15 04:25:00,
2013-02-14 23:30:00,33.1,28.8,29.99,SSE,158,0.0,0.0,84,0.00,,---,0.05,VWS V14.01,2013-02-15 04:30:00,
2013-02-14 23:35:00,32.9,28.6,29.99,SSE,158,0.0,1.0,84,0.00,,---,0.05,VWS V14.01,2013-02-15 04:35:00,
2013-02-14 23:41:00,32.9,28.9,29.99,SSE,158,0.0,0.0,85,0.00,,---,0.05,VWS V14.01,2013-02-15 04:41:00,
2013-02-14 23:46:00,32.8,28.8,29.99,SSE,158,0.0,0.0,85,0.00,,---,0.05,VWS V14.01,2013-02-15 04:46:00,
2013-02-14 23:51:00,32.8,28.8,29.99,SSE,158,0.0,0.0,85,0.00,,---,0.05,VWS V14.01,2013-02-15 04:51:00,
2013-02-14 23:56:00,32.7,28.7,30.00,SSE,150,2.0,2.0,85,0.00,,---,0.05,VWS V14.01,2013-02-15 04:56:00,